KDEN/DEN METAR and TAF weather

Enter ICAO airport designator
Station Type Date Time Source
KDEN METAR 2021/07/28 02:53 UTC NOAA

KDEN 280253Z 13014KT 10SM FEW120 FEW250 28/13 A3016 RMK AO2 SLP121 T02780128 53005


Station Type Date Time Source
KDEN Decoded METAR 2021/07/28 02:53 UTC NOAA

DENVER INTERNATIONAL AIRPORT, CO, United States (KDEN) 39-52N 104-40W 1640M
Jul 27, 2021 - 10:53 PM EDT / 2021.07.28 0253 UTC
Wind: from the SE (130 degrees) at 16 MPH (14 KT):0
Visibility: 10 mile(s):0
Sky conditions: mostly clear
Temperature: 82.0 F (27.8 C)
Dew Point: 55.0 F (12.8 C)
Relative Humidity: 39%
Pressure (altimeter): 30.16 in. Hg (1021 hPa)
Pressure tendency: 0.01 inches (0.5 hPa) higher than three hours ago
ob: KDEN 280253Z 13014KT 10SM FEW120 FEW250 28/13 A3016 RMK AO2 SLP121 T02780128 53005
cycle: 3

Station Type Date Time Source
KDEN TAF 2021/07/28 02:04 UTC NOAA

TAF
AMD KDEN 280202Z 2802/2906 14012KT P6SM SCT080
TEMPO 2802/2804 14012G20KT
FM280400 15012KT P6SM FEW220
FM280600 18010KT P6SM SKC
FM281300 25006KT P6SM SCT220
FM281600 30006KT P6SM SCT220
FM281900 36008KT P6SM FEW080
FM282200 03008KT P6SM FEW080
FM290100 08008KT P6SM FEW080

Example: see airport list